createdAt,value
2022-12-23T00:03:03.664Z,88.91
2022-12-23T00:08:11.359Z,88.98
2022-12-23T00:13:36.790Z,89.06
2022-12-23T00:18:45.168Z,89.22
2022-12-23T00:23:53.932Z,89.43
2022-12-23T00:29:00.969Z,89.29
2022-12-23T00:34:07.913Z,89.13
2022-12-23T00:39:33.689Z,89.50
2022-12-23T00:44:40.620Z,89.48
2022-12-23T00:49:47.501Z,89.38
2022-12-23T00:54:54.437Z,89.32
2022-12-23T01:00:01.370Z,89.49
2022-12-23T01:10:58.709Z,89.39
2022-12-23T01:16:17.530Z,89.40
2022-12-23T01:21:26.277Z,89.28
2022-12-23T01:26:33.263Z,89.23
2022-12-23T01:31:40.262Z,89.26
2022-12-23T01:36:47.282Z,89.11
2022-12-23T01:42:20.247Z,89.00
2022-12-23T01:47:33.221Z,89.18
2022-12-23T01:52:45.050Z,89.38
2022-12-23T01:57:52.935Z,89.25
2022-12-23T02:03:20.908Z,89.15
2022-12-23T02:08:53.695Z,89.11
2022-12-23T02:14:31.386Z,88.90
2022-12-23T02:20:06.155Z,88.99
2022-12-23T02:25:46.882Z,89.03
2022-12-23T02:31:02.706Z,89.04
2022-12-23T02:36:23.769Z,88.91
2022-12-23T02:41:38.343Z,88.94
2022-12-23T02:46:51.459Z,89.15
2022-12-23T02:52:02.312Z,89.21
2022-12-23T02:57:12.873Z,89.23
2022-12-23T03:02:20.672Z,89.24
2022-12-23T03:07:34.711Z,89.21
2022-12-23T03:12:50.359Z,89.23
2022-12-23T03:18:06.717Z,89.18
2022-12-23T03:23:24.771Z,89.17
2022-12-23T03:28:37.021Z,89.19
2022-12-23T03:33:47.619Z,89.15
2022-12-23T03:38:57.055Z,89.23
2022-12-23T03:44:07.863Z,89.21
2022-12-23T03:49:19.737Z,89.20
2022-12-23T03:54:30.716Z,89.36
2022-12-23T03:59:40.381Z,89.45
2022-12-23T04:04:59.025Z,89.51
2022-12-23T04:10:07.433Z,89.58
2022-12-23T04:15:15.019Z,89.67
2022-12-23T04:20:22.308Z,89.67
2022-12-23T04:25:29.330Z,89.62
2022-12-23T04:30:36.330Z,89.58
2022-12-23T04:35:43.177Z,89.49
2022-12-23T04:40:50.163Z,89.48
2022-12-23T04:45:57.217Z,89.53
2022-12-23T04:51:05.637Z,89.52
2022-12-23T04:56:12.691Z,89.65
2022-12-23T05:01:20.061Z,89.59
2022-12-23T05:06:27.000Z,89.47
2022-12-23T05:11:40.159Z,89.71
2022-12-23T05:16:49.502Z,89.63
2022-12-23T05:21:56.627Z,89.55
2022-12-23T05:27:03.571Z,89.61
2022-12-23T05:32:10.659Z,89.77
2022-12-23T05:37:17.687Z,89.88
2022-12-23T05:42:24.555Z,89.82
2022-12-23T05:47:31.531Z,89.68
2022-12-23T05:52:38.959Z,89.65
2022-12-23T05:57:46.016Z,89.60
2022-12-23T06:02:54.134Z,89.55
2022-12-23T06:08:01.693Z,89.38
2022-12-23T06:13:08.701Z,89.52
2022-12-23T06:18:15.842Z,89.35
2022-12-23T06:23:23.018Z,89.40
2022-12-23T06:28:30.718Z,89.40
2022-12-23T06:33:37.618Z,89.38
2022-12-23T06:38:44.663Z,89.36
2022-12-23T06:43:54.404Z,89.37
2022-12-23T06:49:04.922Z,89.28
2022-12-23T06:54:14.949Z,89.45
2022-12-23T06:59:21.947Z,89.47
2022-12-23T07:04:29.116Z,89.62
2022-12-23T07:09:36.191Z,89.67
2022-12-23T07:14:43.231Z,89.77
2022-12-23T07:19:50.122Z,89.72
2022-12-23T07:24:57.107Z,89.69
2022-12-23T07:30:04.175Z,89.79
2022-12-23T07:35:11.846Z,89.67
2022-12-23T07:40:18.840Z,89.62
2022-12-23T07:45:26.047Z,89.76
2022-12-23T07:50:33.134Z,89.83
2022-12-23T07:55:41.079Z,90.11
2022-12-23T08:00:48.943Z,90.00
2022-12-23T08:06:04.634Z,89.99
2022-12-23T08:11:13.202Z,90.33
2022-12-23T08:16:20.451Z,90.27
2022-12-23T08:21:27.800Z,90.27
2022-12-23T08:26:37.886Z,90.30
2022-12-23T08:31:44.800Z,90.16
2022-12-23T08:36:51.979Z,90.31
2022-12-23T08:41:59.545Z,90.11
2022-12-23T08:47:08.457Z,90.10
2022-12-23T08:52:15.341Z,90.13
2022-12-23T08:57:26.170Z,90.07
2022-12-23T09:02:38.233Z,90.13
2022-12-23T09:07:45.994Z,89.88
2022-12-23T09:12:58.012Z,89.93
2022-12-23T09:18:31.728Z,90.03
2022-12-23T09:23:45.160Z,89.80
2022-12-23T09:28:58.784Z,89.87
2022-12-23T09:34:06.143Z,89.78
2022-12-23T09:39:13.761Z,89.72
2022-12-23T09:45:02.961Z,89.58
2022-12-23T09:50:23.712Z,89.47
2022-12-23T09:55:44.313Z,89.48
2022-12-23T10:01:05.940Z,89.63
2022-12-23T10:06:23.884Z,89.43
2022-12-23T10:11:34.878Z,89.35
2022-12-23T10:16:47.723Z,89.33
2022-12-23T10:21:59.813Z,89.31
2022-12-23T10:27:18.962Z,89.23
2022-12-23T10:32:39.676Z,89.54
2022-12-23T10:38:13.809Z,89.41
2022-12-23T10:43:38.493Z,89.52
2022-12-23T10:48:57.621Z,89.55
2022-12-23T10:54:17.593Z,89.32
2022-12-23T10:59:28.338Z,89.26
2022-12-23T11:04:39.055Z,89.15
2022-12-23T11:09:50.613Z,89.01
2022-12-23T11:15:03.697Z,88.85
2022-12-23T11:20:27.078Z,88.68
2022-12-23T11:25:58.417Z,88.49
2022-12-23T11:31:27.223Z,88.54
2022-12-23T11:36:41.183Z,88.36
2022-12-23T11:41:53.719Z,88.40
2022-12-23T11:47:18.650Z,88.19
2022-12-23T11:52:29.023Z,88.28
2022-12-23T11:57:43.561Z,88.20
2022-12-23T12:02:54.946Z,88.14
2022-12-23T12:08:04.983Z,88.18
2022-12-23T12:13:29.585Z,88.13
2022-12-23T12:18:38.372Z,87.69
2022-12-23T12:23:48.024Z,87.58
2022-12-23T12:29:01.199Z,87.13
2022-12-23T12:34:32.111Z,87.16
2022-12-23T12:39:43.522Z,87.35
2022-12-23T12:44:53.926Z,87.40
2022-12-23T12:50:08.070Z,87.51
2022-12-23T12:55:23.908Z,87.47
2022-12-23T13:00:49.897Z,87.52
2022-12-23T13:06:14.554Z,87.68
2022-12-23T13:11:29.161Z,87.55
2022-12-23T13:16:48.369Z,87.65
2022-12-23T13:22:02.864Z,87.89
2022-12-23T13:27:17.645Z,87.95
2022-12-23T13:32:40.966Z,87.80
2022-12-23T13:38:01.514Z,87.92
2022-12-23T13:43:16.396Z,87.75
2022-12-23T13:48:38.284Z,87.66
2022-12-23T13:54:04.604Z,87.66
2022-12-23T13:59:17.048Z,87.71
2022-12-23T14:04:58.797Z,87.60
2022-12-23T14:10:24.227Z,87.65
2022-12-23T14:16:19.983Z,87.64
2022-12-23T14:21:44.726Z,87.58
2022-12-23T14:27:16.626Z,87.74
2022-12-23T14:32:37.346Z,87.71
2022-12-23T14:38:06.116Z,87.55
2022-12-23T14:43:52.742Z,87.47
2022-12-23T14:49:39.971Z,87.89
2022-12-23T14:55:21.041Z,88.66
2022-12-23T15:00:19.590Z,89.19
2022-12-23T15:05:28.245Z,89.49
2022-12-23T15:10:38.545Z,89.59
2022-12-23T15:16:00.975Z,89.61
2022-12-23T15:21:14.175Z,89.60
2022-12-23T15:26:25.346Z,89.71
2022-12-23T15:31:43.532Z,89.55
2022-12-23T15:36:58.408Z,89.55
2022-12-23T15:42:06.001Z,89.58
2022-12-23T15:47:29.275Z,89.85
2022-12-23T15:52:36.338Z,89.71
2022-12-23T15:57:50.453Z,89.68
2022-12-23T16:03:10.258Z,89.59
2022-12-23T16:08:30.319Z,89.41
2022-12-23T16:13:46.716Z,89.49
2022-12-23T16:18:59.201Z,89.35
2022-12-23T16:24:10.977Z,89.51
2022-12-23T16:29:18.265Z,89.42
2022-12-23T16:34:25.167Z,89.37
2022-12-23T16:39:33.084Z,89.47
2022-12-23T16:44:40.075Z,89.38
2022-12-23T16:49:47.739Z,89.22
2022-12-23T16:54:55.729Z,89.50
2022-12-23T17:00:05.004Z,89.60
2022-12-23T17:05:18.292Z,89.72
2022-12-23T17:10:26.033Z,89.78
2022-12-23T17:15:33.487Z,89.76
2022-12-23T17:20:43.411Z,89.83
2022-12-23T17:25:50.836Z,89.76
2022-12-23T17:31:01.989Z,89.64
2022-12-23T17:36:10.516Z,89.74
2022-12-23T17:41:23.416Z,89.69
2022-12-23T17:46:31.893Z,89.77
2022-12-23T17:51:41.336Z,89.78
2022-12-23T17:56:50.140Z,89.87
2022-12-23T18:01:57.414Z,89.78
2022-12-23T18:07:04.721Z,89.68
2022-12-23T18:12:25.134Z,89.81
2022-12-23T18:17:33.938Z,89.69
2022-12-23T18:22:43.787Z,89.74
2022-12-23T18:27:51.329Z,89.70
2022-12-23T18:32:58.867Z,89.87
2022-12-23T18:38:07.637Z,90.05
2022-12-23T18:43:23.110Z,90.15
2022-12-23T18:48:30.203Z,90.06
2022-12-23T18:53:37.137Z,90.01
2022-12-23T18:58:44.192Z,89.94
2022-12-23T19:03:51.275Z,90.13
2022-12-23T19:08:58.122Z,90.05
2022-12-23T19:14:05.058Z,89.98
2022-12-23T19:19:13.980Z,89.80
2022-12-23T19:24:20.790Z,89.81
2022-12-23T19:29:28.101Z,89.62
2022-12-23T19:34:37.779Z,89.68
2022-12-23T19:39:46.069Z,89.82
2022-12-23T19:44:53.734Z,89.91
2022-12-23T19:50:01.239Z,89.84
2022-12-23T19:55:13.180Z,89.77
2022-12-23T20:00:19.219Z,89.85
2022-12-23T20:05:27.222Z,89.82
2022-12-23T20:10:35.622Z,89.87
2022-12-23T20:15:45.981Z,89.99
2022-12-23T20:21:01.404Z,89.80
2022-12-23T20:26:09.033Z,90.11
2022-12-23T20:31:25.740Z,89.99
2022-12-23T20:36:37.614Z,89.93
2022-12-23T20:41:45.616Z,89.95
2022-12-23T20:46:52.959Z,89.88
2022-12-23T20:52:00.136Z,89.84
2022-12-23T20:57:11.194Z,89.83
2022-12-23T21:02:19.222Z,89.88
2022-12-23T21:07:26.969Z,89.83
2022-12-23T21:12:34.021Z,89.84
2022-12-23T21:17:41.001Z,89.81
2022-12-23T21:22:48.440Z,89.85
2022-12-23T21:27:55.870Z,89.81
2022-12-23T21:33:03.647Z,89.90
2022-12-23T21:38:10.610Z,89.95
2022-12-23T21:43:17.590Z,89.89
2022-12-23T21:48:24.600Z,89.93
2022-12-23T21:53:31.785Z,90.04
2022-12-23T21:58:39.136Z,89.97
2022-12-23T22:03:47.514Z,90.04
2022-12-23T22:08:55.736Z,90.05
2022-12-23T22:14:04.391Z,90.23
2022-12-23T22:19:12.846Z,90.16
2022-12-23T22:24:20.070Z,90.18
2022-12-23T22:29:27.862Z,90.38
2022-12-23T22:34:35.141Z,90.69
2022-12-23T22:39:42.351Z,90.66
2022-12-23T22:44:49.602Z,90.77
2022-12-23T22:49:56.835Z,90.66
2022-12-23T22:55:04.097Z,90.83
2022-12-23T23:00:14.065Z,90.87
2022-12-23T23:05:21.600Z,91.07
2022-12-23T23:10:29.597Z,90.95
2022-12-23T23:15:36.823Z,90.84
2022-12-23T23:20:58.527Z,90.88
2022-12-23T23:26:10.449Z,90.75
2022-12-23T23:36:48.595Z,90.69
2022-12-23T23:41:56.051Z,90.61
2022-12-23T23:47:03.421Z,90.66
2022-12-23T23:52:14.052Z,90.73
2022-12-23T23:57:29.790Z,90.68
